Relevés horaires Eggishorn (Suisse)


Relevés horaires à Eggishorn - Vendredi 27 Mars 2015
Heure UTC1 Température [°C] Vent [km/h] Hum. [%] Pres.4 [hPa] Visi. [Km] Nébu. [octa] Préc.5 [mm] Cond.
2m. Res. Ros. Dir.2 Vit. Moy. Raf.3
23:00 -10.6 -20.2 -15.9 NNO 29.6 38.9 63.0 65 700(0.6/3h) -- -- -- --
22:00 -9.1 -19 -18.0 NO 35.2 35.2 61.1 48 700(0.8/3h) -- -- -- --
21:00 -8.9 -18.3 -21.0 NNO 31.5 48.2 70.4 37 700(1.1/3h) -- -- -- --
20:00 -8.6 -16.5 -21.2 N 22.2 40.7 66.7 35 700(1.1/3h) -- -- -- --
19:00 -9.0 -18.9 -22.3 NNO 35.2 48.2 70.4 33 700(1.3/3h) -- -- -- --
18:00 -9.3 -20.5 -18.1 NNO 46.3 57.4 81.5 49 700(1.3/3h) -- -- -- --
17:00 -8.7 -18.5 -21.1 NNO 35.2 48.2 77.8 36 700(1.6/3h) -- -- -- --
16:00 -9.4 -20.4 -14.1 NNO 44.4 48.2 81.5 68 700 -- -- -- --
15:00 -8.7 -20.2 -14.6 NNO 51.9 57.4 81.5 62 700(0.7/3h) -- -- -- --
14:00 -8.1 -19.8 -14.7 NNO 57.4 57.4 81.5 59 700(0.4/3h) -- -- -- --
13:00 -8.4 -19.6 -12.6 NNO 50.0 57.4 75.9 72 700(1.0/3h) -- -- -- --
12:00 -8.5 -19.4 -11.3 NNO 46.3 51.9 72.2 80 700(1.6/3h) -- -- -- --
11:00 -8.9 -18.8 -11.5 NNO 35.2 48.2 68.5 81 700(1.7/3h) -- -- -- --
10:00 -9.3 -19.9 -10.4 NNO 40.7 50.0 68.5 92 700(1.6/3h) -- -- -- --
09:00 -9.5 -20.7 -9.9 NNO 46.3 51.9 72.2 97 700(1.5/3h) -- -- -- --
08:00 -10.0 -21.2 -10.3 NNO 44.4 46.3 72.2 98 700(1.8/3h) -- -- -- --
07:00 -9.9 -20.7 -10.4 NNO 40.7 42.6 70.4 96 700(1.4/3h) -- -- -- --
06:00 -10.2 -20.9 -12.9 NNO 38.9 53.7 79.6 80 700(0.8/3h) -- -- -- --
05:00 -10.1 -21.9 -13.7 NNO 50.0 50.0 70.4 75 700(-0.1/3h) -- -- -- --
04:00 -9.6 -20.5 -12.4 NNO 42.6 44.4 63.0 80 700(-0.3/3h) -- -- -- --
03:00 -8.8 -18.6 -11.7 NNO 35.2 37.0 51.9 79 700(-0.5/3h) -- -- -- --
02:00 -8.6 -16.8 -9.3 NNO 24.1 29.6 44.4 95 700(-0.3/3h) -- -- -- --
01:00 -8.2 -17.1 -9.9 NNO 29.6 29.6 42.6 87 700(-0.4/3h) -- -- -- --
00:00 -7.9 -7.9 -7.9 SSO 3.7 16.7 20.4 100 700(0.0/3h) -- -- -- --

1 Coordinated Universal Time. Actuellement il est 06:00 locale et 04:00 UTC.

2 Le vent souffle depuis la direction indiquée vers la direction oposée.

3 Les rafales max. sont disponible 40 min après l'heure du relevé.

4 Pour les stations d'altitude (plus de 600m) le géopotentiel du niveau le plus proche de la pression obligatoire est indiqué.

5 Les stations disposant d'un diffuseur peuvent indiquer "trace". Cela signifie que des précipitations ont touchés le sol mais que la quantité est inférieure à 0.1 mm.

Copyright

Les données affichées sur cette page sont la propriété exclusive de Météo Suisse.

Récapitulatif de la journée
Température [°C] Vent [km/h] Ensoleillement4 [h] Precipitations totale5 [mm] Pression [Hpa]
Min1 Max.2 Moy.3 Max. Min Max.
-10.5 -7.9 45.4 81.5 7 h 12 min 0 700.0 700.0

1 Température minimale relevée entre 18:00 UTC la veille et 18:00 UTC le jour donné.

2 Température maximale relevée entre 06:00 UTC le jour donné et 06:00 UTC le lendemain.

3 Vent moyen de la journée basé sur les relevés horaires.

4 Ensoleillement en heures relevé entre 06:00 UTC la veille et 06:00 UTC le jour donné.

5 Précipitations totales tombées entre 06:00 UTC la jour donné et 06:00 UTC le lendemain.

Graphiques horaires